Time;durP1;ratioP1;P1;durP2;ratioP2;P2;SDS_P1;SDS_P2;PMS_P1;PMS_P2;Temp;Humidity;BMP_temperature;BMP_pressure;BME280_temperature;BME280_humidity;BME280_pressure;Samples;Min_cycle;Max_cycle;Signal;HPM_P1;HPM_P2
2022/09/22 00:00:27;;;;;;;5.78;3.00;;;;;;;0.79;100.00;93610.69;2123005;27;20051;-71
2022/09/22 00:01:31;;;;;;;4.78;3.38;;;;;;;0.82;100.00;93615.25;2122612;27;20457;-72
2022/09/22 00:02:32;;;;;;;6.28;3.22;;;;;;;0.84;100.00;93617.56;2123101;27;20022;-72
2022/09/22 00:03:39;;;;;;;10.98;3.13;;;;;;;0.83;100.00;93611.53;2122513;27;20078;-72
2022/09/22 00:04:40;;;;;;;3.88;3.20;;;;;;;0.82;100.00;93611.88;2122616;27;20035;-72
2022/09/22 00:05:41;;;;;;;4.03;3.00;;;;;;;0.79;100.00;93620.44;2123002;27;20477;-71
2022/09/22 00:06:50;;;;;;;4.57;3.17;;;;;;;0.69;100.00;93613.84;2122788;27;20026;-72
2022/09/22 00:07:52;;;;;;;5.50;3.43;;;;;;;0.73;100.00;93620.69;2123075;27;20109;-71
2022/09/22 00:09:01;;;;;;;7.22;3.63;;;;;;;0.79;100.00;93613.34;2122889;27;20448;-72
2022/09/22 00:10:02;;;;;;;5.05;3.20;;;;;;;0.84;100.00;93614.94;2118651;27;20062;-73
2022/09/22 00:11:07;;;;;;;5.97;3.50;;;;;;;0.81;100.00;93611.13;2122698;27;20031;-72
2022/09/22 00:12:07;;;;;;;3.45;2.95;;;;;;;0.80;100.00;93614.09;2122820;27;20037;-73
2022/09/22 00:13:09;;;;;;;5.25;3.58;;;;;;;0.82;100.00;93615.25;2113933;28;20177;-72
2022/09/22 00:14:15;;;;;;;5.00;3.50;;;;;;;0.77;100.00;93612.13;2114069;27;20097;-72
2022/09/22 00:15:17;;;;;;;4.47;3.15;;;;;;;0.84;100.00;93612.31;2122118;27;20050;-72
2022/09/22 00:16:22;;;;;;;6.03;3.40;;;;;;;0.65;100.00;93612.97;2122848;27;20046;-72
2022/09/22 00:17:23;;;;;;;5.07;3.33;;;;;;;0.60;100.00;93611.38;2113289;28;20032;-73
2022/09/22 00:18:28;;;;;;;7.97;3.10;;;;;;;0.53;100.00;93613.84;2113745;28;20020;-73
2022/09/22 00:19:35;;;;;;;7.93;3.00;;;;;;;0.63;100.00;93617.84;2119057;27;20031;-72
2022/09/22 00:20:38;;;;;;;4.55;2.85;;;;;;;0.71;100.00;93615.03;2121602;27;20085;-72
2022/09/22 00:21:39;;;;;;;4.55;3.05;;;;;;;0.77;100.00;93617.41;2111787;28;20102;-72
2022/09/22 00:22:40;;;;;;;4.43;3.58;;;;;;;0.71;100.00;93617.66;2113791;27;20020;-73
2022/09/22 00:23:42;;;;;;;8.18;3.85;;;;;;;0.65;100.00;93619.00;2122808;27;20031;-73
2022/09/22 00:24:44;;;;;;;5.57;3.20;;;;;;;0.62;100.00;93617.06;2122540;27;20031;-72
2022/09/22 00:25:45;;;;;;;6.20;3.50;;;;;;;0.62;100.00;93613.69;2122279;27;20031;-73
2022/09/22 00:26:47;;;;;;;6.10;3.33;;;;;;;0.65;100.00;93607.72;2122919;27;20031;-73
2022/09/22 00:27:53;;;;;;;4.90;3.28;;;;;;;0.62;100.00;93609.19;2122655;27;20035;-72
2022/09/22 00:28:54;;;;;;;5.72;2.80;;;;;;;0.42;100.00;93605.69;2122193;27;20027;-72
2022/09/22 00:29:55;;;;;;;10.48;3.45;;;;;;;0.58;100.00;93610.22;2113414;28;20470;-73
2022/09/22 00:30:55;;;;;;;5.35;3.70;;;;;;;0.54;100.00;93602.22;2113425;28;20036;-73
2022/09/22 00:31:57;;;;;;;7.50;3.40;;;;;;;0.58;100.00;93604.94;2118023;27;20461;-73
2022/09/22 00:32:58;;;;;;;8.32;3.05;;;;;;;0.64;100.00;93606.97;2122671;27;20080;-72
2022/09/22 00:33:58;;;;;;;6.30;3.22;;;;;;;0.58;100.00;93603.06;2122935;27;20531;-72
2022/09/22 00:34:59;;;;;;;7.38;3.35;;;;;;;0.64;100.00;93599.06;2122851;27;20365;-72
2022/09/22 00:36:02;;;;;;;7.30;3.67;;;;;;;0.66;100.00;93601.34;2122223;27;20030;-72
2022/09/22 00:37:03;;;;;;;6.55;3.08;;;;;;;0.71;100.00;93593.97;2122203;27;20070;-72
2022/09/22 00:38:05;;;;;;;4.15;3.08;;;;;;;0.58;100.00;93595.19;2122597;27;20027;-73
2022/09/22 00:39:06;;;;;;;9.15;3.42;;;;;;;0.64;100.00;93596.44;2122495;27;20027;-71
2022/09/22 00:40:08;;;;;;;5.82;3.45;;;;;;;0.75;100.00;93589.56;2122721;27;20080;-72
2022/09/22 00:41:20;;;;;;;5.95;3.50;;;;;;;0.68;100.00;93588.63;2122632;27;20143;-72
2022/09/22 00:42:21;;;;;;;4.82;3.20;;;;;;;0.65;100.00;93592.69;2112238;28;20034;-72
2022/09/22 00:43:25;;;;;;;4.85;3.63;;;;;;;0.62;100.00;93595.28;2113184;28;20027;-72
2022/09/22 00:44:33;;;;;;;6.18;3.72;;;;;;;0.59;100.00;93593.31;2113311;27;20051;-72
2022/09/22 00:45:34;;;;;;;5.38;3.42;;;;;;;0.56;100.00;93593.97;2122796;27;20311;-72
2022/09/22 00:46:39;;;;;;;4.60;3.25;;;;;;;0.48;100.00;93595.69;2112715;28;20568;-73
2022/09/22 00:47:45;;;;;;;5.05;3.25;;;;;;;0.43;100.00;93588.03;2113801;27;20047;-72
2022/09/22 00:48:51;;;;;;;5.82;3.85;;;;;;;0.39;100.00;93587.19;2113077;28;20377;-72
2022/09/22 00:50:27;;;;;;;4.75;3.58;;;;;;;0.53;100.00;93586.75;2105670;28;20030;-73
2022/09/22 00:51:34;;;;;;;6.50;3.33;;;;;;;0.57;100.00;93590.25;2112183;27;20066;-72
2022/09/22 00:52:45;;;;;;;7.55;3.20;;;;;;;0.57;100.00;93595.50;2122732;27;20070;-73
2022/09/22 00:53:47;;;;;;;5.35;3.38;;;;;;;0.57;100.00;93591.03;2122692;27;20555;-72
2022/09/22 00:54:52;;;;;;;5.30;3.90;;;;;;;0.47;100.00;93587.03;2122009;27;20023;-72
2022/09/22 00:56:22;;;;;;;9.40;3.20;;;;;;;0.48;100.00;93585.16;2122286;27;20039;-72
2022/09/22 00:57:25;;;;;;;;;;;;;;;0.48;100.00;93580.69;2099606;27;20048;-72
2022/09/22 00:58:31;;;;;;;5.57;3.05;;;;;;;0.43;100.00;93588.81;2119605;27;19911;-72
2022/09/22 00:59:32;;;;;;;5.70;3.35;;;;;;;0.62;100.00;93580.25;2122149;27;20562;-71
2022/09/22 01:00:34;;;;;;;4.43;3.30;;;;;;;0.55;100.00;93579.31;2113490;28;20023;-71
2022/09/22 01:01:39;;;;;;;5.95;3.30;;;;;;;0.45;100.00;93576.09;2104801;28;20035;-71
2022/09/22 01:02:40;;;;;;;4.78;3.15;;;;;;;0.44;100.00;93579.03;2113834;27;20061;-71
2022/09/22 01:03:45;;;;;;;6.18;3.47;;;;;;;0.43;100.00;93578.28;2122448;27;20026;-72
2022/09/22 01:04:49;;;;;;;3.97;2.90;;;;;;;0.33;100.00;93570.91;2122503;27;20038;-72
2022/09/22 01:05:53;;;;;;;6.35;3.45;;;;;;;0.28;100.00;93575.69;2113447;28;20557;-72
2022/09/22 01:06:56;;;;;;;6.50;3.13;;;;;;;0.35;100.00;93570.56;2113431;27;20114;-72
2022/09/22 01:07:57;;;;;;;5.95;3.78;;;;;;;0.34;100.00;93569.06;2117559;27;20076;-72
2022/09/22 01:09:00;;;;;;;5.00;3.47;;;;;;;0.29;100.00;93570.06;2122189;27;20046;-72
2022/09/22 01:10:02;;;;;;;5.80;3.53;;;;;;;0.27;100.00;93568.91;2118940;27;20029;-72
2022/09/22 01:11:05;;;;;;;8.32;3.90;;;;;;;0.22;100.00;93577.78;2122681;27;20071;-72
2022/09/22 01:12:06;;;;;;;7.13;3.25;;;;;;;0.23;100.00;93572.19;2122355;27;20035;-72
2022/09/22 01:13:21;;;;;;;5.20;3.20;;;;;;;0.28;100.00;93562.53;2103739;28;20421;-71
2022/09/22 01:14:55;;;;;;;5.03;3.35;;;;;;;0.32;100.00;93568.63;2108459;27;20097;-71
2022/09/22 01:16:16;;;;;;;4.35;3.38;;;;;;;0.28;100.00;93567.78;2118007;27;20047;-71
2022/09/22 01:17:38;;;;;;;4.57;3.30;;;;;;;0.21;100.00;93569.13;2079269;28;20101;-72
2022/09/22 01:19:00;;;;;;;8.07;3.60;;;;;;;0.20;100.00;93569.47;2110063;28;20434;-71
2022/09/22 01:20:23;;;;;;;4.78;3.78;;;;;;;0.17;100.00;93565.66;2105654;28;20351;-72
2022/09/22 01:21:41;;;;;;;7.28;3.33;;;;;;;0.24;100.00;93565.06;2116444;27;20452;-71
2022/09/22 01:22:52;;;;;;;4.28;3.17;;;;;;;0.12;100.00;93559.88;2120580;27;20720;-72
2022/09/22 01:24:17;;;;;;;7.20;4.07;;;;;;;0.20;100.00;93564.97;2121632;27;20095;-71
2022/09/22 01:25:43;;;;;;;5.65;3.60;;;;;;;0.12;100.00;93557.25;2120921;27;20035;-72
2022/09/22 01:27:22;;;;;;;5.50;3.55;;;;;;;0.10;100.00;93557.59;2120491;27;20150;-73
2022/09/22 01:28:38;;;;;;;4.78;3.20;;;;;;;0.08;100.00;93561.66;2121354;27;20027;-73
2022/09/22 01:30:05;;;;;;;7.18;3.33;;;;;;;0.10;100.00;93556.84;2119751;27;20114;-73
2022/09/22 01:31:15;;;;;;;7.45;3.90;;;;;;;0.16;100.00;93553.63;2119685;27;20102;-72
2022/09/22 01:32:19;;;;;;;8.23;3.95;;;;;;;0.08;100.00;93556.41;2121920;27;20138;-72
2022/09/22 01:33:28;;;;;;;7.70;3.40;;;;;;;0.10;100.00;93548.97;2122344;27;20152;-71
2022/09/22 01:34:37;;;;;;;5.20;3.50;;;;;;;0.09;100.00;93556.09;2120818;27;20110;-72
2022/09/22 01:35:54;;;;;;;8.35;3.90;;;;;;;-0.10;100.00;93555.97;2122284;27;20025;-71
2022/09/22 01:37:01;;;;;;;5.80;3.80;;;;;;;-0.10;100.00;93556.72;2122291;27;20038;-71
2022/09/22 01:38:09;;;;;;;8.52;3.90;;;;;;;-0.23;100.00;93555.25;2118819;27;20031;-72
2022/09/22 01:39:20;;;;;;;5.85;3.67;;;;;;;-0.09;100.00;93546.97;2121384;27;20042;-72
2022/09/22 01:40:30;;;;;;;5.80;3.58;;;;;;;-0.10;100.00;93554.09;2121340;27;20026;-71
2022/09/22 01:41:57;;;;;;;8.80;4.07;;;;;;;-0.04;100.00;93544.88;2118871;27;20027;-72
2022/09/22 01:43:30;;;;;;;5.15;3.47;;;;;;;0.02;100.00;93544.63;2118311;27;20114;-72
2022/09/22 01:44:38;;;;;;;5.45;3.75;;;;;;;-0.03;100.00;93537.75;2083103;28;20039;-72
2022/09/22 01:45:43;;;;;;;6.65;3.42;;;;;;;-0.03;100.00;93543.78;2108364;28;20043;-71
2022/09/22 01:47:01;;;;;;;4.22;3.55;;;;;;;0.04;100.00;93545.03;2113833;27;20030;-72
2022/09/22 01:48:13;;;;;;;6.38;3.75;;;;;;;-0.12;100.00;93548.44;2118766;27;20026;-72
2022/09/22 01:49:18;;;;;;;5.22;3.30;;;;;;;-0.02;100.00;93545.28;2121790;27;20034;-71
2022/09/22 01:50:31;;;;;;;7.20;3.95;;;;;;;0.11;100.00;93545.22;2120965;27;20057;-72
2022/09/22 01:51:53;;;;;;;6.53;3.70;;;;;;;-0.03;100.00;93549.03;2118726;27;20106;-72
2022/09/22 01:52:59;;;;;;;7.68;3.40;;;;;;;-0.03;100.00;93548.28;2122328;27;20027;-71
2022/09/22 01:54:06;;;;;;;6.68;3.67;;;;;;;0.05;100.00;93549.22;2118439;27;20381;-71
2022/09/22 01:55:32;;;;;;;6.93;3.60;;;;;;;0.03;100.00;93551.41;2121217;27;20457;-71
2022/09/22 01:56:36;;;;;;;6.63;3.65;;;;;;;0.06;100.00;93546.25;2119063;27;20038;-72
2022/09/22 01:57:58;;;;;;;8.20;3.45;;;;;;;-0.09;100.00;93545.13;2121543;27;20038;-71
2022/09/22 01:59:03;;;;;;;6.10;3.47;;;;;;;-0.07;100.00;93544.78;2117254;27;20062;-71
2022/09/22 02:00:07;;;;;;;8.65;4.60;;;;;;;-0.05;100.00;93543.34;2121858;27;20033;-71
2022/09/22 02:01:18;;;;;;;6.93;3.75;;;;;;;-0.09;100.00;93546.97;2121469;27;20019;-71
2022/09/22 02:02:34;;;;;;;5.22;3.33;;;;;;;-0.15;100.00;93546.47;2121996;27;20034;-72
2022/09/22 02:03:43;;;;;;;6.10;3.47;;;;;;;-0.17;100.00;93550.53;2119176;27;20406;-72
2022/09/22 02:04:49;;;;;;;5.30;3.33;;;;;;;-0.08;100.00;93546.66;2121364;27;20023;-71
2022/09/22 02:05:55;;;;;;;3.50;3.20;;;;;;;-0.17;100.00;93543.44;2120930;27;20108;-71
2022/09/22 02:07:01;;;;;;;6.35;3.80;;;;;;;-0.12;100.00;93548.44;2117910;27;20076;-72
2022/09/22 02:08:08;;;;;;;6.20;3.15;;;;;;;-0.11;100.00;93554.44;2122076;27;20031;-72
2022/09/22 02:09:13;;;;;;;6.22;3.58;;;;;;;-0.16;100.00;93550.19;2121039;27;20078;-71
2022/09/22 02:10:19;;;;;;;7.07;3.85;;;;;;;-0.39;100.00;93541.34;2121542;27;20030;-72
2022/09/22 02:11:21;;;;;;;8.13;3.70;;;;;;;-0.39;100.00;93550.00;2111853;28;20082;-71
2022/09/22 02:12:22;;;;;;;6.07;3.58;;;;;;;-0.29;100.00;93548.75;2105049;28;20024;-72
2022/09/22 02:13:23;;;;;;;4.63;3.15;;;;;;;-0.22;100.00;93546.31;2106175;28;20039;-72
2022/09/22 02:14:25;;;;;;;4.75;3.72;;;;;;;-0.21;100.00;93549.69;2104933;28;20024;-71
2022/09/22 02:16:46;;;;;;;4.60;3.25;;;;;;;-0.25;100.00;93546.97;2119407;27;20104;-71
2022/09/22 02:17:48;;;;;;;5.05;3.70;;;;;;;-0.31;100.00;93545.66;2121646;27;20027;-72
2022/09/22 02:18:51;;;;;;;6.10;3.92;;;;;;;-0.33;100.00;93559.16;2121930;27;20039;-72
2022/09/22 02:19:52;;;;;;;7.35;3.47;;;;;;;-0.29;100.00;93541.63;2121883;27;20042;-71
2022/09/22 02:20:54;;;;;;;9.82;3.72;;;;;;;-0.43;100.00;93546.50;2121670;27;20027;-71
2022/09/22 02:21:55;;;;;;;4.93;3.25;;;;;;;-0.40;100.00;93547.69;2120921;27;20027;-71
2022/09/22 02:22:56;;;;;;;7.10;3.42;;;;;;;-0.35;100.00;93544.81;2117537;28;20019;-71
2022/09/22 02:23:59;;;;;;;4.63;3.33;;;;;;;-0.34;100.00;93549.75;2122188;27;20034;-71
2022/09/22 02:25:00;;;;;;;6.97;3.50;;;;;;;-0.35;100.00;93542.19;2112841;28;20031;-71
2022/09/22 02:26:04;;;;;;;5.30;3.70;;;;;;;-0.33;100.00;93543.38;2113256;28;20481;-72
2022/09/22 02:27:08;;;;;;;3.90;3.28;;;;;;;-0.33;100.00;93545.25;2119127;27;20126;-72
2022/09/22 02:28:13;;;;;;;6.35;3.63;;;;;;;-0.40;100.00;93545.06;2121434;27;20034;-72
2022/09/22 02:29:14;;;;;;;5.32;3.50;;;;;;;-0.42;100.00;93545.41;2121725;27;20027;-71
2022/09/22 02:30:15;;;;;;;5.18;3.58;;;;;;;-0.34;100.00;93555.00;2121812;27;20541;-72
2022/09/22 02:31:18;;;;;;;4.28;3.20;;;;;;;-0.34;100.00;93549.75;2121878;28;20388;-70
2022/09/22 02:32:20;;;;;;;5.07;3.78;;;;;;;-0.34;100.00;93554.22;2121097;28;20027;-72
2022/09/22 02:33:25;;;;;;;4.78;3.05;;;;;;;-0.42;100.00;93552.53;2121996;28;20046;-72
2022/09/22 02:34:27;;;;;;;3.83;3.20;;;;;;;-0.47;100.00;93548.28;2121518;28;20330;-72
2022/09/22 02:35:31;;;;;;;5.43;3.80;;;;;;;-0.51;100.00;93553.44;2117733;28;20031;-72
2022/09/22 02:36:53;;;;;;;6.93;3.42;;;;;;;-0.53;100.00;93558.25;2121891;28;20102;-72
2022/09/22 02:38:24;;;;;;;5.38;3.00;;;;;;;-0.45;100.00;93550.56;2121040;28;20064;-72
2022/09/22 02:39:42;;;;;;;6.28;3.72;;;;;;;-0.40;100.00;93552.94;2121697;28;20106;-72
2022/09/22 02:41:00;;;;;;;9.90;3.53;;;;;;;-0.48;100.00;93544.13;2119433;28;20362;-72
2022/09/22 02:42:35;;;;;;;5.45;3.42;;;;;;;-0.56;100.00;93551.03;2118191;28;20031;-72
2022/09/22 02:44:14;;;;;;;6.43;3.03;;;;;;;-0.50;100.00;93543.69;2119275;28;20034;-72
2022/09/22 02:45:22;;;;;;;5.00;2.92;;;;;;;-0.43;100.00;93553.63;2082060;28;20558;-73
2022/09/22 02:46:31;;;;;;;5.25;3.25;;;;;;;-0.45;100.00;93542.69;2087229;28;20110;-72
2022/09/22 02:47:41;;;;;;;3.85;3.10;;;;;;;-0.35;100.00;93544.81;2079406;28;20889;-71
2022/09/22 02:49:20;;;;;;;6.75;3.50;;;;;;;-0.42;100.00;93545.41;2086494;28;20156;-71
2022/09/22 02:50:24;;;;;;;4.80;3.58;;;;;;;-0.43;100.00;93549.13;2087090;28;20098;-71
2022/09/22 02:51:27;;;;;;;6.18;3.20;;;;;;;-0.53;100.00;93549.59;2121470;28;20031;-71
2022/09/22 02:52:28;;;;;;;7.32;3.47;;;;;;;-0.50;100.00;93548.94;2121534;28;20076;-72
2022/09/22 02:53:32;;;;;;;4.07;3.15;;;;;;;-0.53;100.00;93553.00;2121125;28;20475;-71
2022/09/22 02:54:33;;;;;;;5.38;3.30;;;;;;;-0.68;100.00;93552.94;2112752;28;20028;-72
2022/09/22 02:55:34;;;;;;;4.30;3.65;;;;;;;-0.65;100.00;93555.69;2112827;28;20024;-71
2022/09/22 02:56:35;;;;;;;5.45;3.78;;;;;;;-0.42;100.00;93555.16;2121642;28;20035;-71
2022/09/22 02:57:36;;;;;;;4.18;3.10;;;;;;;-0.46;100.00;93555.03;2121308;28;20076;-71
2022/09/22 02:58:37;;;;;;;6.03;3.60;;;;;;;-0.48;100.00;93557.25;2111558;28;20070;-73
2022/09/22 02:59:38;;;;;;;7.50;3.63;;;;;;;-0.45;100.00;93561.06;2112853;28;20018;-72
2022/09/22 03:00:39;;;;;;;10.65;3.80;;;;;;;-0.49;100.00;93560.19;2121869;28;20019;-71
2022/09/22 03:01:40;;;;;;;5.00;2.80;;;;;;;-0.63;100.00;93558.72;2121823;28;20441;-72
2022/09/22 03:02:41;;;;;;;5.18;3.55;;;;;;;-0.63;100.00;93561.34;2121767;28;20510;-72
2022/09/22 03:03:42;;;;;;;5.15;3.45;;;;;;;-0.57;100.00;93559.22;2121311;28;20039;-72
2022/09/22 03:04:43;;;;;;;5.72;3.15;;;;;;;-0.45;100.00;93546.06;2121403;28;20026;-72
2022/09/22 03:05:43;;;;;;;5.15;3.15;;;;;;;-0.52;100.00;93554.53;2121804;28;20027;-72
2022/09/22 03:06:44;;;;;;;7.22;3.28;;;;;;;-0.54;100.00;93555.94;2112761;28;20378;-71
2022/09/22 03:07:45;;;;;;;6.32;3.67;;;;;;;-0.68;100.00;93564.22;2112886;28;20020;-72
2022/09/22 03:08:46;;;;;;;4.80;3.40;;;;;;;-0.70;100.00;93563.78;2112117;28;20032;-73
2022/09/22 03:09:47;;;;;;;4.53;3.42;;;;;;;-0.63;100.00;93557.97;2116790;27;20139;-72
2022/09/22 03:10:48;;;;;;;6.85;3.38;;;;;;;-0.63;100.00;93550.84;2113915;28;20409;-71
2022/09/22 03:11:49;;;;;;;5.25;3.55;;;;;;;-0.62;100.00;93557.59;2114014;28;20043;-71
2022/09/22 03:12:50;;;;;;;6.78;3.33;;;;;;;-0.61;100.00;93556.53;2123373;27;20065;-71
2022/09/22 03:13:52;;;;;;;7.32;3.38;;;;;;;-0.65;100.00;93557.53;2123359;27;20031;-71
2022/09/22 03:14:54;;;;;;;7.38;3.92;;;;;;;-0.64;100.00;93554.56;2123061;27;20155;-71
2022/09/22 03:15:55;;;;;;;7.25;3.53;;;;;;;-0.63;100.00;93553.47;2122686;27;20062;-71
2022/09/22 03:16:57;;;;;;;4.45;3.55;;;;;;;-0.54;100.00;93558.56;2113987;28;20392;-71
2022/09/22 03:17:58;;;;;;;4.97;3.20;;;;;;;-0.61;100.00;93563.66;2110521;27;20058;-71
2022/09/22 03:18:59;;;;;;;5.20;3.83;;;;;;;-0.63;100.00;93560.59;2123123;27;20076;-71
2022/09/22 03:20:00;;;;;;;4.90;4.00;;;;;;;-0.81;100.00;93558.22;2120503;27;20035;-71
2022/09/22 03:21:01;;;;;;;4.95;3.42;;;;;;;-0.72;100.00;93558.09;2123461;27;20785;-71
2022/09/22 03:22:02;;;;;;;7.00;3.70;;;;;;;-0.65;100.00;93555.69;2113835;28;20114;-71
2022/09/22 03:23:03;;;;;;;10.32;4.20;;;;;;;-0.71;100.00;93564.88;2114100;28;20024;-71
2022/09/22 03:24:04;;;;;;;6.05;3.80;;;;;;;-0.67;100.00;93559.72;2123385;27;20029;-71
2022/09/22 03:25:06;;;;;;;7.07;4.00;;;;;;;-0.70;100.00;93558.53;2122514;27;20039;-71
2022/09/22 03:26:07;;;;;;;5.25;3.53;;;;;;;-0.67;100.00;93559.72;2097332;28;20101;-70
2022/09/22 03:27:08;;;;;;;6.40;4.07;;;;;;;-0.66;100.00;93558.63;2097469;28;20455;-71
2022/09/22 03:28:09;;;;;;;5.13;4.05;;;;;;;-0.76;100.00;93557.22;2123184;27;20027;-70
2022/09/22 03:29:10;;;;;;;5.57;3.70;;;;;;;-0.76;100.00;93551.97;2123272;27;20183;-71
2022/09/22 03:30:11;;;;;;;7.90;4.15;;;;;;;-0.79;100.00;93553.44;2122258;27;20041;-71
2022/09/22 03:31:12;;;;;;;4.15;3.63;;;;;;;-0.73;100.00;93555.81;2123393;27;20027;-71
2022/09/22 03:32:13;;;;;;;5.03;3.90;;;;;;;-0.70;100.00;93555.13;2123287;27;20389;-71
2022/09/22 03:33:14;;;;;;;7.93;3.88;;;;;;;-0.72;100.00;93549.47;2123124;27;20642;-70
2022/09/22 03:34:15;;;;;;;5.45;3.63;;;;;;;-0.84;100.00;93550.25;2123283;27;20042;-71
2022/09/22 03:35:16;;;;;;;10.50;3.80;;;;;;;-0.78;100.00;93548.94;2122293;27;20035;-71
2022/09/22 03:36:17;;;;;;;4.90;3.72;;;;;;;-0.68;100.00;93548.47;2122995;27;20035;-71
2022/09/22 03:37:18;;;;;;;8.27;4.20;;;;;;;-0.70;100.00;93549.88;2123200;27;20027;-71
2022/09/22 03:38:19;;;;;;;8.73;3.83;;;;;;;-0.64;100.00;93551.94;2114027;28;20031;-71
2022/09/22 03:39:20;;;;;;;7.13;3.78;;;;;;;-0.72;100.00;93544.22;2114090;28;20027;-71
2022/09/22 03:40:22;;;;;;;5.93;3.83;;;;;;;-0.76;100.00;93552.75;2113899;28;20031;-71
2022/09/22 03:41:23;;;;;;;7.13;4.05;;;;;;;-0.84;100.00;93548.38;2123081;27;20027;-71
2022/09/22 03:42:24;;;;;;;8.27;4.00;;;;;;;-0.74;100.00;93549.81;2123033;27;20068;-72
2022/09/22 03:43:24;;;;;;;4.88;3.40;;;;;;;-0.84;100.00;93547.63;2114246;28;20032;-71
2022/09/22 03:44:25;;;;;;;7.13;4.10;;;;;;;-0.75;100.00;93543.00;2114110;28;20035;-71
2022/09/22 03:45:26;;;;;;;5.50;3.88;;;;;;;-0.79;100.00;93547.38;2114777;28;20130;-72
2022/09/22 03:46:28;;;;;;;4.88;3.90;;;;;;;-0.77;100.00;93550.47;2112785;28;20027;-72
2022/09/22 03:47:30;;;;;;;5.90;3.72;;;;;;;-0.81;100.00;93549.59;2105344;28;20032;-72
2022/09/22 03:48:31;;;;;;;7.13;4.07;;;;;;;-0.88;100.00;93546.75;2114194;28;20083;-71
2022/09/22 03:49:32;;;;;;;7.60;4.22;;;;;;;-0.90;100.00;93548.97;2122979;27;20414;-72
2022/09/22 03:50:33;;;;;;;5.50;3.70;;;;;;;-0.85;100.00;93548.72;2123225;27;20034;-71
2022/09/22 03:51:34;;;;;;;6.60;4.72;;;;;;;-0.87;100.00;93549.06;2122571;27;20027;-70
2022/09/22 03:52:35;;;;;;;8.35;4.78;;;;;;;-0.84;100.00;93547.63;2122340;27;20035;-71
2022/09/22 03:53:36;;;;;;;7.22;4.20;;;;;;;-0.84;100.00;93551.00;2115814;27;20030;-71
2022/09/22 03:54:37;;;;;;;6.50;4.30;;;;;;;-0.78;100.00;93544.44;2114068;27;20718;-70
2022/09/22 03:55:37;;;;;;;8.68;4.20;;;;;;;-0.78;100.00;93547.06;2123110;27;20064;-71
2022/09/22 03:56:38;;;;;;;6.60;4.03;;;;;;;-0.78;100.00;93549.69;2122377;27;20027;-71
2022/09/22 03:57:42;;;;;;;6.72;3.88;;;;;;;-0.84;100.00;93548.38;2122844;27;20074;-71
2022/09/22 03:58:43;;;;;;;6.85;3.78;;;;;;;-0.86;100.00;93545.34;2122331;27;20030;-72
2022/09/22 03:59:44;;;;;;;5.55;3.85;;;;;;;-0.99;100.00;93546.47;2122876;27;20015;-71
2022/09/22 04:00:47;;;;;;;7.05;3.78;;;;;;;-1.02;100.00;93545.25;2123065;27;20031;-71
2022/09/22 04:01:48;;;;;;;5.85;3.92;;;;;;;-1.07;100.00;93550.75;2122413;27;20111;-71
2022/09/22 04:02:49;;;;;;;7.68;4.00;;;;;;;-0.99;100.00;93545.72;2123049;27;20034;-71
2022/09/22 04:03:50;;;;;;;6.88;4.10;;;;;;;-0.92;100.00;93548.53;2122846;27;20095;-72
2022/09/22 04:04:51;;;;;;;4.55;3.70;;;;;;;-0.84;100.00;93547.63;2123147;27;20368;-71
2022/09/22 04:05:52;;;;;;;6.95;3.78;;;;;;;-0.90;100.00;93547.09;2122867;27;20101;-70
2022/09/22 04:06:53;;;;;;;4.90;3.67;;;;;;;-0.90;100.00;93548.97;2122988;27;20363;-70
2022/09/22 04:07:54;;;;;;;5.78;3.97;;;;;;;-0.87;100.00;93550.94;2118611;27;20054;-70
2022/09/22 04:08:55;;;;;;;10.45;3.78;;;;;;;-0.87;100.00;93548.31;2122695;27;20465;-72
2022/09/22 04:09:56;;;;;;;4.95;3.75;;;;;;;-0.92;100.00;93543.28;2121909;27;20792;-70
2022/09/22 04:10:59;;;;;;;5.10;3.45;;;;;;;-0.87;100.00;93541.19;2122755;27;20027;-70
2022/09/22 04:12:01;;;;;;;4.35;3.75;;;;;;;-0.79;100.00;93542.13;2113811;28;20058;-69
2022/09/22 04:13:02;;;;;;;5.63;3.67;;;;;;;-0.98;100.00;93540.13;2104340;28;20024;-68
2022/09/22 04:14:03;;;;;;;5.15;3.67;;;;;;;-0.91;100.00;93542.19;2116186;27;20036;-69
2022/09/22 04:15:05;;;;;;;5.93;4.30;;;;;;;-1.00;100.00;93537.09;2122399;27;20031;-70
2022/09/22 04:16:06;;;;;;;4.13;3.72;;;;;;;-0.89;100.00;93547.88;2122341;27;20034;-70
2022/09/22 04:17:07;;;;;;;8.57;3.92;;;;;;;-0.90;100.00;93541.09;2112464;28;20036;-70
2022/09/22 04:18:09;;;;;;;4.10;3.53;;;;;;;-0.92;100.00;93544.06;2113267;27;20051;-69
2022/09/22 04:19:10;;;;;;;5.45;4.00;;;;;;;-0.91;100.00;93545.59;2122870;27;20039;-70
2022/09/22 04:20:12;;;;;;;5.50;3.40;;;;;;;-0.86;100.00;93547.22;2122513;27;20831;-70
2022/09/22 04:21:13;;;;;;;6.72;3.92;;;;;;;-0.87;100.00;93543.81;2121991;27;20255;-70
2022/09/22 04:22:14;;;;;;;7.68;3.85;;;;;;;-0.89;100.00;93542.63;2122465;27;20034;-71
2022/09/22 04:23:16;;;;;;;4.85;4.30;;;;;;;-0.90;100.00;93547.09;2121959;27;20035;-69
2022/09/22 04:24:17;;;;;;;4.43;3.58;;;;;;;-0.92;100.00;93543.28;2122846;27;20031;-69
2022/09/22 04:25:18;;;;;;;5.93;3.42;;;;;;;-0.82;100.00;93538.34;2122707;27;20035;-70
2022/09/22 04:26:19;;;;;;;3.97;3.53;;;;;;;-0.88;100.00;93552.00;2122367;27;20026;-69
2022/09/22 04:27:20;;;;;;;4.43;3.53;;;;;;;-0.90;100.00;93538.47;2122668;27;20026;-70
2022/09/22 04:28:21;;;;;;;6.07;3.92;;;;;;;-0.93;100.00;93542.50;2121696;27;20035;-70
2022/09/22 04:29:22;;;;;;;5.28;3.30;;;;;;;-0.91;100.00;93537.72;2122106;27;20011;-70
2022/09/22 04:30:23;;;;;;;4.90;3.80;;;;;;;-0.91;100.00;93542.19;2122687;27;20034;-70
2022/09/22 04:31:24;;;;;;;4.68;3.53;;;;;;;-0.89;100.00;93537.38;2113398;28;20020;-69
2022/09/22 04:32:25;;;;;;;15.57;4.93;;;;;;;-0.92;100.00;93543.28;2113405;28;20115;-70
2022/09/22 04:33:26;;;;;;;4.78;4.00;;;;;;;-1.06;100.00;93539.16;2122646;27;20453;-70
2022/09/22 04:34:27;;;;;;;5.15;3.58;;;;;;;-0.97;100.00;93544.28;2118480;27;20043;-70
2022/09/22 04:35:28;;;;;;;4.78;4.05;;;;;;;-1.06;100.00;93536.53;2122741;27;20027;-71
2022/09/22 04:36:29;;;;;;;4.25;3.78;;;;;;;-1.16;100.00;93538.84;2122772;27;20024;-70
2022/09/22 04:37:30;;;;;;;4.07;3.60;;;;;;;-1.18;100.00;93539.19;2113557;28;20027;-70
2022/09/22 04:38:31;;;;;;;4.55;4.05;;;;;;;-1.04;100.00;93544.84;2112832;28;20043;-70
2022/09/22 04:39:32;;;;;;;5.82;4.30;;;;;;;-0.96;100.00;93537.19;2121166;27;20350;-70
2022/09/22 04:40:34;;;;;;;4.25;3.85;;;;;;;-1.06;100.00;93539.16;2122810;27;20026;-70
2022/09/22 04:41:35;;;;;;;4.28;3.47;;;;;;;-0.99;100.00;93543.09;2122579;27;20027;-70
2022/09/22 04:42:36;;;;;;;4.43;4.00;;;;;;;-0.98;100.00;93539.38;2113661;28;20028;-72
2022/09/22 04:43:37;;;;;;;6.50;3.72;;;;;;;-0.91;100.00;93540.34;2113642;28;20023;-69
2022/09/22 04:44:38;;;;;;;5.53;4.43;;;;;;;-1.02;100.00;93544.50;2103843;28;20669;-71
2022/09/22 04:45:38;;;;;;;6.07;4.28;;;;;;;-0.97;100.00;93541.66;2104980;28;20031;-70
2022/09/22 04:46:40;;;;;;;5.95;4.40;;;;;;;-1.08;100.00;93538.72;2122771;27;20022;-70
2022/09/22 04:47:50;;;;;;;6.57;3.88;;;;;;;-0.98;100.00;93528.88;2122740;27;20042;-70
2022/09/22 04:48:51;;;;;;;6.85;4.55;;;;;;;-1.02;100.00;93539.25;2122481;27;20073;-70
2022/09/22 04:49:52;;;;;;;7.28;3.95;;;;;;;-1.18;100.00;93547.06;2121776;27;20031;-70
2022/09/22 04:50:53;;;;;;;6.40;4.18;;;;;;;-1.14;100.00;93534.03;2122136;27;20042;-69
2022/09/22 04:51:54;;;;;;;4.07;3.67;;;;;;;-1.07;100.00;93540.25;2122682;27;20821;-71
2022/09/22 04:52:56;;;;;;;11.15;3.90;;;;;;;-1.07;100.00;93545.50;2122602;27;20031;-69
2022/09/22 04:53:57;;;;;;;7.78;4.50;;;;;;;-1.02;100.00;93539.25;2120610;27;20031;-69
2022/09/22 04:54:58;;;;;;;4.00;3.60;;;;;;;-1.02;100.00;93534.78;2121607;27;20027;-69
2022/09/22 04:55:59;;;;;;;6.18;4.05;;;;;;;-1.02;100.00;93536.63;2122665;27;20038;-69
2022/09/22 04:56:59;;;;;;;6.68;4.13;;;;;;;-1.05;100.00;93540.69;2122330;27;20051;-70
2022/09/22 04:58:01;;;;;;;5.43;4.00;;;;;;;-1.00;100.00;93539.72;2122346;27;20027;-70
2022/09/22 04:59:02;;;;;;;5.13;3.80;;;;;;;-1.01;100.00;93540.78;2122249;27;20035;-70
2022/09/22 05:00:04;;;;;;;6.88;4.68;;;;;;;-1.02;100.00;93534.00;2107146;28;20046;-70
2022/09/22 05:01:06;;;;;;;4.65;3.80;;;;;;;-1.18;100.00;93546.31;2107658;27;20047;-70
2022/09/22 05:02:07;;;;;;;5.28;3.97;;;;;;;-1.25;100.00;93541.59;2118387;27;20031;-70
2022/09/22 05:03:11;;;;;;;5.35;3.88;;;;;;;-1.16;100.00;93542.25;2109177;28;20034;-70
2022/09/22 05:04:13;;;;;;;7.28;4.05;;;;;;;-1.17;100.00;93542.59;2109873;28;20042;-69